sensor_id;sensor_type;location;lat;lon;timestamp;P1;durP1;ratioP1;P2;durP2;ratioP2
79036;SDS011;68434;59.896;30.474;2023-04-25T00:01:06;29.92;;;16.17;;
79036;SDS011;68434;59.896;30.474;2023-04-25T00:03:34;31.95;;;15.18;;
79036;SDS011;68434;59.896;30.474;2023-04-25T00:08:30;33.38;;;16.48;;
79036;SDS011;68434;59.896;30.474;2023-04-25T00:11:00;34.53;;;16.27;;
79036;SDS011;68434;59.896;30.474;2023-04-25T00:13:27;32.33;;;16.95;;
79036;SDS011;68434;59.896;30.474;2023-04-25T00:15:55;30.20;;;17.13;;
79036;SDS011;68434;59.896;30.474;2023-04-25T00:18:23;34.85;;;18.58;;
79036;SDS011;68434;59.896;30.474;2023-04-25T00:20:54;29.90;;;17.17;;
79036;SDS011;68434;59.896;30.474;2023-04-25T00:23:22;34.70;;;18.77;;
79036;SDS011;68434;59.896;30.474;2023-04-25T00:25:50;32.97;;;19.30;;
79036;SDS011;68434;59.896;30.474;2023-04-25T00:28:19;29.88;;;17.88;;
79036;SDS011;68434;59.896;30.474;2023-04-25T00:30:47;35.92;;;18.92;;
79036;SDS011;68434;59.896;30.474;2023-04-25T00:33:14;31.85;;;18.30;;
79036;SDS011;68434;59.896;30.474;2023-04-25T00:35:42;29.58;;;18.30;;
79036;SDS011;68434;59.896;30.474;2023-04-25T00:38:09;30.88;;;19.10;;
79036;SDS011;68434;59.896;30.474;2023-04-25T00:40:37;33.97;;;19.35;;
79036;SDS011;68434;59.896;30.474;2023-04-25T00:43:05;40.60;;;21.77;;
79036;SDS011;68434;59.896;30.474;2023-04-25T00:45:34;31.25;;;20.63;;
79036;SDS011;68434;59.896;30.474;2023-04-25T00:48:06;32.78;;;21.95;;
79036;SDS011;68434;59.896;30.474;2023-04-25T00:50:33;33.95;;;21.75;;
79036;SDS011;68434;59.896;30.474;2023-04-25T00:55:30;33.13;;;20.90;;
79036;SDS011;68434;59.896;30.474;2023-04-25T00:58:00;36.75;;;22.13;;
79036;SDS011;68434;59.896;30.474;2023-04-25T01:00:28;36.47;;;21.38;;
79036;SDS011;68434;59.896;30.474;2023-04-25T01:02:57;29.52;;;19.90;;
79036;SDS011;68434;59.896;30.474;2023-04-25T01:05:28;44.78;;;21.92;;
79036;SDS011;68434;59.896;30.474;2023-04-25T01:07:56;33.10;;;20.45;;
79036;SDS011;68434;59.896;30.474;2023-04-25T01:10:24;28.30;;;20.10;;
79036;SDS011;68434;59.896;30.474;2023-04-25T01:12:51;33.13;;;19.33;;
79036;SDS011;68434;59.896;30.474;2023-04-25T01:15:19;28.60;;;19.63;;
79036;SDS011;68434;59.896;30.474;2023-04-25T01:17:47;28.77;;;18.83;;
79036;SDS011;68434;59.896;30.474;2023-04-25T01:20:16;28.85;;;19.80;;
79036;SDS011;68434;59.896;30.474;2023-04-25T01:22:45;23.98;;;16.90;;
79036;SDS011;68434;59.896;30.474;2023-04-25T01:25:13;27.20;;;16.80;;
79036;SDS011;68434;59.896;30.474;2023-04-25T01:27:41;27.05;;;16.80;;
79036;SDS011;68434;59.896;30.474;2023-04-25T01:30:09;29.23;;;17.08;;
79036;SDS011;68434;59.896;30.474;2023-04-25T01:32:38;32.40;;;15.60;;
79036;SDS011;68434;59.896;30.474;2023-04-25T01:37:35;30.55;;;16.48;;
79036;SDS011;68434;59.896;30.474;2023-04-25T01:40:05;27.58;;;16.85;;
79036;SDS011;68434;59.896;30.474;2023-04-25T01:42:34;27.23;;;14.82;;
79036;SDS011;68434;59.896;30.474;2023-04-25T01:45:04;23.75;;;14.57;;
79036;SDS011;68434;59.896;30.474;2023-04-25T01:47:32;22.40;;;14.18;;
79036;SDS011;68434;59.896;30.474;2023-04-25T01:50:00;26.10;;;14.30;;
79036;SDS011;68434;59.896;30.474;2023-04-25T01:52:30;20.80;;;13.55;;
79036;SDS011;68434;59.896;30.474;2023-04-25T01:54:58;24.25;;;14.98;;
79036;SDS011;68434;59.896;30.474;2023-04-25T01:57:32;26.10;;;14.60;;
79036;SDS011;68434;59.896;30.474;2023-04-25T02:00:01;23.83;;;14.75;;
79036;SDS011;68434;59.896;30.474;2023-04-25T02:02:40;22.83;;;15.07;;
79036;SDS011;68434;59.896;30.474;2023-04-25T02:05:24;25.25;;;15.98;;
79036;SDS011;68434;59.896;30.474;2023-04-25T02:07:51;24.65;;;16.63;;
79036;SDS011;68434;59.896;30.474;2023-04-25T02:10:19;25.38;;;16.90;;
79036;SDS011;68434;59.896;30.474;2023-04-25T02:13:11;18.98;;;14.57;;
79036;SDS011;68434;59.896;30.474;2023-04-25T02:18:52;20.73;;;12.48;;
79036;SDS011;68434;59.896;30.474;2023-04-25T02:21:20;17.05;;;11.93;;
79036;SDS011;68434;59.896;30.474;2023-04-25T02:23:47;18.02;;;14.27;;
79036;SDS011;68434;59.896;30.474;2023-04-25T02:26:17;22.13;;;14.75;;
79036;SDS011;68434;59.896;30.474;2023-04-25T02:28:46;23.13;;;12.35;;
79036;SDS011;68434;59.896;30.474;2023-04-25T02:31:15;17.25;;;12.43;;
79036;SDS011;68434;59.896;30.474;2023-04-25T02:33:42;19.15;;;11.02;;
79036;SDS011;68434;59.896;30.474;2023-04-25T02:36:10;22.52;;;10.38;;
79036;SDS011;68434;59.896;30.474;2023-04-25T02:38:38;15.80;;;11.13;;
79036;SDS011;68434;59.896;30.474;2023-04-25T02:41:06;19.83;;;10.82;;
79036;SDS011;68434;59.896;30.474;2023-04-25T02:43:33;18.80;;;9.60;;
79036;SDS011;68434;59.896;30.474;2023-04-25T02:46:02;12.80;;;9.30;;
79036;SDS011;68434;59.896;30.474;2023-04-25T02:48:30;19.05;;;9.00;;
79036;SDS011;68434;59.896;30.474;2023-04-25T02:50:58;15.77;;;8.63;;
79036;SDS011;68434;59.896;30.474;2023-04-25T02:53:25;14.35;;;7.90;;
79036;SDS011;68434;59.896;30.474;2023-04-25T02:55:53;12.40;;;7.20;;
79036;SDS011;68434;59.896;30.474;2023-04-25T02:58:24;17.23;;;8.48;;
79036;SDS011;68434;59.896;30.474;2023-04-25T03:00:52;14.00;;;7.47;;
79036;SDS011;68434;59.896;30.474;2023-04-25T03:03:21;11.68;;;7.03;;
79036;SDS011;68434;59.896;30.474;2023-04-25T03:05:50;14.50;;;7.43;;
79036;SDS011;68434;59.896;30.474;2023-04-25T03:08:23;11.35;;;7.10;;
79036;SDS011;68434;59.896;30.474;2023-04-25T03:10:55;13.25;;;7.03;;
79036;SDS011;68434;59.896;30.474;2023-04-25T03:13:24;9.13;;;6.30;;
79036;SDS011;68434;59.896;30.474;2023-04-25T03:15:53;11.63;;;6.78;;
79036;SDS011;68434;59.896;30.474;2023-04-25T03:18:22;13.63;;;7.35;;
79036;SDS011;68434;59.896;30.474;2023-04-25T03:20:50;14.00;;;8.85;;
79036;SDS011;68434;59.896;30.474;2023-04-25T03:23:17;14.23;;;9.82;;
79036;SDS011;68434;59.896;30.474;2023-04-25T03:25:45;14.90;;;8.70;;
79036;SDS011;68434;59.896;30.474;2023-04-25T03:28:12;14.38;;;8.43;;
79036;SDS011;68434;59.896;30.474;2023-04-25T03:30:40;13.93;;;8.55;;
79036;SDS011;68434;59.896;30.474;2023-04-25T03:33:09;13.65;;;8.93;;
79036;SDS011;68434;59.896;30.474;2023-04-25T03:35:38;10.85;;;7.32;;
79036;SDS011;68434;59.896;30.474;2023-04-25T03:38:06;14.43;;;7.78;;
79036;SDS011;68434;59.896;30.474;2023-04-25T03:40:38;12.05;;;6.82;;
79036;SDS011;68434;59.896;30.474;2023-04-25T03:43:24;10.25;;;6.20;;
79036;SDS011;68434;59.896;30.474;2023-04-25T03:45:57;8.95;;;5.88;;
79036;SDS011;68434;59.896;30.474;2023-04-25T03:48:25;9.38;;;5.95;;
79036;SDS011;68434;59.896;30.474;2023-04-25T03:50:55;12.73;;;7.07;;
79036;SDS011;68434;59.896;30.474;2023-04-25T03:53:23;12.90;;;7.20;;
79036;SDS011;68434;59.896;30.474;2023-04-25T03:56:10;15.02;;;7.65;;
79036;SDS011;68434;59.896;30.474;2023-04-25T03:58:39;15.52;;;8.85;;
79036;SDS011;68434;59.896;30.474;2023-04-25T04:01:07;15.63;;;9.13;;
79036;SDS011;68434;59.896;30.474;2023-04-25T04:03:37;21.50;;;9.60;;
79036;SDS011;68434;59.896;30.474;2023-04-25T04:06:07;16.70;;;9.77;;
79036;SDS011;68434;59.896;30.474;2023-04-25T04:08:40;16.33;;;9.52;;
79036;SDS011;68434;59.896;30.474;2023-04-25T04:11:09;17.40;;;9.40;;
79036;SDS011;68434;59.896;30.474;2023-04-25T04:13:37;13.85;;;8.77;;
79036;SDS011;68434;59.896;30.474;2023-04-25T04:16:05;15.65;;;7.57;;
79036;SDS011;68434;59.896;30.474;2023-04-25T04:18:33;13.65;;;7.30;;
79036;SDS011;68434;59.896;30.474;2023-04-25T04:21:01;11.30;;;6.22;;
79036;SDS011;68434;59.896;30.474;2023-04-25T04:23:33;13.63;;;6.45;;
79036;SDS011;68434;59.896;30.474;2023-04-25T04:26:01;11.93;;;5.80;;
79036;SDS011;68434;59.896;30.474;2023-04-25T04:28:47;11.75;;;8.10;;
79036;SDS011;68434;59.896;30.474;2023-04-25T04:31:30;19.58;;;10.30;;
79036;SDS011;68434;59.896;30.474;2023-04-25T04:33:59;17.85;;;9.93;;
79036;SDS011;68434;59.896;30.474;2023-04-25T04:36:27;22.58;;;12.85;;
79036;SDS011;68434;59.896;30.474;2023-04-25T04:39:14;21.20;;;13.05;;
79036;SDS011;68434;59.896;30.474;2023-04-25T04:41:53;19.40;;;11.75;;
79036;SDS011;68434;59.896;30.474;2023-04-25T04:44:46;17.02;;;8.75;;
79036;SDS011;68434;59.896;30.474;2023-04-25T04:47:33;14.48;;;6.80;;
79036;SDS011;68434;59.896;30.474;2023-04-25T04:50:20;12.40;;;6.85;;
79036;SDS011;68434;59.896;30.474;2023-04-25T04:53:06;9.73;;;5.47;;
79036;SDS011;68434;59.896;30.474;2023-04-25T04:55:38;13.15;;;6.00;;
79036;SDS011;68434;59.896;30.474;2023-04-25T04:58:27;8.05;;;5.35;;
79036;SDS011;68434;59.896;30.474;2023-04-25T05:01:22;10.73;;;4.65;;
79036;SDS011;68434;59.896;30.474;2023-04-25T05:04:06;11.77;;;5.40;;
79036;SDS011;68434;59.896;30.474;2023-04-25T05:06:51;8.00;;;4.82;;
79036;SDS011;68434;59.896;30.474;2023-04-25T05:09:31;8.27;;;4.60;;
79036;SDS011;68434;59.896;30.474;2023-04-25T05:12:12;8.98;;;4.60;;
79036;SDS011;68434;59.896;30.474;2023-04-25T05:15:06;6.43;;;4.32;;
79036;SDS011;68434;59.896;30.474;2023-04-25T05:17:34;16.13;;;7.50;;
79036;SDS011;68434;59.896;30.474;2023-04-25T05:20:20;12.82;;;7.88;;
79036;SDS011;68434;59.896;30.474;2023-04-25T05:23:07;17.77;;;10.55;;
79036;SDS011;68434;59.896;30.474;2023-04-25T05:25:59;18.10;;;10.77;;
79036;SDS011;68434;59.896;30.474;2023-04-25T05:28:51;16.75;;;11.60;;
79036;SDS011;68434;59.896;30.474;2023-04-25T05:31:38;17.75;;;10.93;;
79036;SDS011;68434;59.896;30.474;2023-04-25T05:34:14;15.82;;;8.63;;
79036;SDS011;68434;59.896;30.474;2023-04-25T05:36:55;12.27;;;9.48;;
79036;SDS011;68434;59.896;30.474;2023-04-25T05:39:24;11.30;;;8.60;;
79036;SDS011;68434;59.896;30.474;2023-04-25T05:41:51;10.55;;;6.93;;
79036;SDS011;68434;59.896;30.474;2023-04-25T05:44:47;11.55;;;6.03;;
79036;SDS011;68434;59.896;30.474;2023-04-25T05:47:22;8.15;;;4.70;;
79036;SDS011;68434;59.896;30.474;2023-04-25T05:50:19;7.35;;;4.63;;
79036;SDS011;68434;59.896;30.474;2023-04-25T05:53:10;10.65;;;5.53;;
79036;SDS011;68434;59.896;30.474;2023-04-25T05:55:40;9.23;;;5.10;;
79036;SDS011;68434;59.896;30.474;2023-04-25T05:58:28;8.93;;;5.03;;
79036;SDS011;68434;59.896;30.474;2023-04-25T06:00:59;11.75;;;6.18;;
79036;SDS011;68434;59.896;30.474;2023-04-25T06:03:26;12.80;;;5.07;;
79036;SDS011;68434;59.896;30.474;2023-04-25T06:05:56;9.80;;;6.05;;
79036;SDS011;68434;59.896;30.474;2023-04-25T06:08:25;9.73;;;5.65;;
79036;SDS011;68434;59.896;30.474;2023-04-25T06:10:53;11.48;;;4.78;;
79036;SDS011;68434;59.896;30.474;2023-04-25T06:16:10;9.13;;;6.15;;
79036;SDS011;68434;59.896;30.474;2023-04-25T06:18:38;7.45;;;6.18;;
79036;SDS011;68434;59.896;30.474;2023-04-25T06:21:06;7.63;;;4.30;;
79036;SDS011;68434;59.896;30.474;2023-04-25T06:23:34;8.77;;;5.13;;
79036;SDS011;68434;59.896;30.474;2023-04-25T06:26:04;10.13;;;5.90;;
79036;SDS011;68434;59.896;30.474;2023-04-25T06:28:33;7.57;;;5.07;;
79036;SDS011;68434;59.896;30.474;2023-04-25T06:31:21;8.23;;;5.40;;
79036;SDS011;68434;59.896;30.474;2023-04-25T06:33:49;13.55;;;5.90;;
79036;SDS011;68434;59.896;30.474;2023-04-25T06:36:20;9.88;;;6.90;;
79036;SDS011;68434;59.896;30.474;2023-04-25T06:38:53;7.55;;;5.20;;
79036;SDS011;68434;59.896;30.474;2023-04-25T06:41:24;7.85;;;5.28;;
79036;SDS011;68434;59.896;30.474;2023-04-25T06:43:52;7.90;;;4.65;;
79036;SDS011;68434;59.896;30.474;2023-04-25T06:46:34;10.02;;;4.82;;
79036;SDS011;68434;59.896;30.474;2023-04-25T06:49:03;7.03;;;4.97;;
79036;SDS011;68434;59.896;30.474;2023-04-25T06:51:31;11.95;;;4.90;;
79036;SDS011;68434;59.896;30.474;2023-04-25T06:53:59;9.60;;;4.78;;
79036;SDS011;68434;59.896;30.474;2023-04-25T06:56:33;12.65;;;4.60;;
79036;SDS011;68434;59.896;30.474;2023-04-25T06:59:11;18.95;;;13.10;;
79036;SDS011;68434;59.896;30.474;2023-04-25T07:01:42;8.75;;;4.95;;
79036;SDS011;68434;59.896;30.474;2023-04-25T07:04:14;6.07;;;4.93;;
79036;SDS011;68434;59.896;30.474;2023-04-25T07:06:48;9.35;;;4.32;;
79036;SDS011;68434;59.896;30.474;2023-04-25T07:09:19;9.48;;;4.43;;
79036;SDS011;68434;59.896;30.474;2023-04-25T07:11:48;8.98;;;4.38;;
79036;SDS011;68434;59.896;30.474;2023-04-25T07:14:16;15.27;;;5.90;;
79036;SDS011;68434;59.896;30.474;2023-04-25T07:16:46;10.02;;;5.07;;
79036;SDS011;68434;59.896;30.474;2023-04-25T07:19:13;8.57;;;4.90;;
79036;SDS011;68434;59.896;30.474;2023-04-25T07:21:41;9.13;;;4.53;;
79036;SDS011;68434;59.896;30.474;2023-04-25T07:24:10;10.65;;;5.50;;
79036;SDS011;68434;59.896;30.474;2023-04-25T07:26:41;10.77;;;4.63;;
79036;SDS011;68434;59.896;30.474;2023-04-25T07:29:31;8.40;;;5.10;;
79036;SDS011;68434;59.896;30.474;2023-04-25T07:32:02;5.47;;;4.15;;
79036;SDS011;68434;59.896;30.474;2023-04-25T07:34:30;5.90;;;3.50;;
79036;SDS011;68434;59.896;30.474;2023-04-25T07:36:58;7.45;;;3.53;;
79036;SDS011;68434;59.896;30.474;2023-04-25T07:39:36;7.47;;;3.85;;
79036;SDS011;68434;59.896;30.474;2023-04-25T07:42:05;6.38;;;4.35;;
79036;SDS011;68434;59.896;30.474;2023-04-25T07:44:34;8.10;;;3.60;;
79036;SDS011;68434;59.896;30.474;2023-04-25T07:47:06;8.35;;;5.80;;
79036;SDS011;68434;59.896;30.474;2023-04-25T07:49:34;6.47;;;3.45;;
79036;SDS011;68434;59.896;30.474;2023-04-25T07:52:03;7.00;;;3.72;;
79036;SDS011;68434;59.896;30.474;2023-04-25T07:54:33;13.15;;;4.05;;
79036;SDS011;68434;59.896;30.474;2023-04-25T07:57:10;4.70;;;2.97;;
79036;SDS011;68434;59.896;30.474;2023-04-25T07:59:39;6.20;;;3.30;;
79036;SDS011;68434;59.896;30.474;2023-04-25T08:02:08;5.28;;;3.55;;
79036;SDS011;68434;59.896;30.474;2023-04-25T08:04:36;7.43;;;3.53;;
79036;SDS011;68434;59.896;30.474;2023-04-25T08:07:07;6.57;;;3.55;;
79036;SDS011;68434;59.896;30.474;2023-04-25T08:09:44;4.28;;;3.03;;
79036;SDS011;68434;59.896;30.474;2023-04-25T08:12:19;5.10;;;3.05;;
79036;SDS011;68434;59.896;30.474;2023-04-25T08:14:47;9.88;;;3.42;;
79036;SDS011;68434;59.896;30.474;2023-04-25T08:17:16;4.80;;;3.42;;
79036;SDS011;68434;59.896;30.474;2023-04-25T08:19:44;7.20;;;3.22;;
79036;SDS011;68434;59.896;30.474;2023-04-25T08:22:22;5.13;;;3.55;;
79036;SDS011;68434;59.896;30.474;2023-04-25T08:24:54;5.55;;;3.67;;
79036;SDS011;68434;59.896;30.474;2023-04-25T08:27:22;7.65;;;3.35;;
79036;SDS011;68434;59.896;30.474;2023-04-25T08:29:50;5.45;;;3.00;;
79036;SDS011;68434;59.896;30.474;2023-04-25T08:32:20;5.68;;;3.42;;
79036;SDS011;68434;59.896;30.474;2023-04-25T08:35:08;9.38;;;3.13;;
79036;SDS011;68434;59.896;30.474;2023-04-25T08:37:36;6.70;;;2.95;;
79036;SDS011;68434;59.896;30.474;2023-04-25T08:40:11;5.82;;;2.70;;
79036;SDS011;68434;59.896;30.474;2023-04-25T08:43:01;7.13;;;2.83;;
79036;SDS011;68434;59.896;30.474;2023-04-25T08:45:31;6.10;;;2.92;;
79036;SDS011;68434;59.896;30.474;2023-04-25T08:48:02;5.70;;;3.00;;
79036;SDS011;68434;59.896;30.474;2023-04-25T08:50:30;6.78;;;2.60;;
79036;SDS011;68434;59.896;30.474;2023-04-25T08:52:58;5.22;;;2.50;;
79036;SDS011;68434;59.896;30.474;2023-04-25T08:55:31;3.90;;;2.72;;
79036;SDS011;68434;59.896;30.474;2023-04-25T09:00:27;4.72;;;2.83;;
79036;SDS011;68434;59.896;30.474;2023-04-25T09:02:56;4.90;;;2.65;;
79036;SDS011;68434;59.896;30.474;2023-04-25T09:05:30;5.57;;;2.53;;
79036;SDS011;68434;59.896;30.474;2023-04-25T09:08:00;8.30;;;2.95;;
79036;SDS011;68434;59.896;30.474;2023-04-25T09:10:28;7.38;;;3.20;;
79036;SDS011;68434;59.896;30.474;2023-04-25T09:13:03;4.60;;;2.83;;
79036;SDS011;68434;59.896;30.474;2023-04-25T09:15:48;7.15;;;2.63;;
79036;SDS011;68434;59.896;30.474;2023-04-25T09:18:33;11.25;;;3.30;;
79036;SDS011;68434;59.896;30.474;2023-04-25T09:21:09;4.28;;;2.92;;
79036;SDS011;68434;59.896;30.474;2023-04-25T09:23:41;4.68;;;3.20;;
79036;SDS011;68434;59.896;30.474;2023-04-25T09:26:13;9.02;;;3.17;;
79036;SDS011;68434;59.896;30.474;2023-04-25T09:28:44;4.55;;;2.92;;
79036;SDS011;68434;59.896;30.474;2023-04-25T09:31:21;4.97;;;2.95;;
79036;SDS011;68434;59.896;30.474;2023-04-25T09:33:58;6.78;;;3.70;;
79036;SDS011;68434;59.896;30.474;2023-04-25T09:36:29;7.38;;;3.55;;
79036;SDS011;68434;59.896;30.474;2023-04-25T09:39:15;12.02;;;9.00;;
79036;SDS011;68434;59.896;30.474;2023-04-25T09:41:53;6.95;;;3.22;;
79036;SDS011;68434;59.896;30.474;2023-04-25T09:44:23;6.05;;;2.90;;
79036;SDS011;68434;59.896;30.474;2023-04-25T09:46:52;6.68;;;3.00;;
79036;SDS011;68434;59.896;30.474;2023-04-25T09:49:23;5.25;;;3.28;;
79036;SDS011;68434;59.896;30.474;2023-04-25T09:52:17;5.10;;;3.00;;
79036;SDS011;68434;59.896;30.474;2023-04-25T09:55:25;4.43;;;2.95;;
79036;SDS011;68434;59.896;30.474;2023-04-25T09:57:54;3.83;;;2.92;;
79036;SDS011;68434;59.896;30.474;2023-04-25T10:00:28;6.18;;;3.55;;
79036;SDS011;68434;59.896;30.474;2023-04-25T10:03:00;4.70;;;3.10;;
79036;SDS011;68434;59.896;30.474;2023-04-25T10:05:51;4.20;;;3.00;;
79036;SDS011;68434;59.896;30.474;2023-04-25T10:08:21;4.20;;;2.97;;
79036;SDS011;68434;59.896;30.474;2023-04-25T10:10:52;4.60;;;2.83;;
79036;SDS011;68434;59.896;30.474;2023-04-25T10:13:20;4.15;;;2.92;;
79036;SDS011;68434;59.896;30.474;2023-04-25T10:15:49;5.97;;;2.88;;
79036;SDS011;68434;59.896;30.474;2023-04-25T10:18:19;4.40;;;3.10;;
79036;SDS011;68434;59.896;30.474;2023-04-25T10:20:47;9.65;;;3.10;;
79036;SDS011;68434;59.896;30.474;2023-04-25T10:23:14;4.55;;;2.80;;
79036;SDS011;68434;59.896;30.474;2023-04-25T10:28:11;6.93;;;3.17;;
79036;SDS011;68434;59.896;30.474;2023-04-25T10:30:40;4.22;;;2.80;;
79036;SDS011;68434;59.896;30.474;2023-04-25T10:33:29;4.82;;;3.17;;
79036;SDS011;68434;59.896;30.474;2023-04-25T10:35:59;4.05;;;2.72;;
79036;SDS011;68434;59.896;30.474;2023-04-25T10:38:36;5.20;;;2.83;;
79036;SDS011;68434;59.896;30.474;2023-04-25T10:41:06;7.32;;;3.58;;
79036;SDS011;68434;59.896;30.474;2023-04-25T10:43:36;6.35;;;3.22;;
79036;SDS011;68434;59.896;30.474;2023-04-25T10:46:18;4.30;;;3.03;;
79036;SDS011;68434;59.896;30.474;2023-04-25T10:48:49;5.65;;;3.22;;
79036;SDS011;68434;59.896;30.474;2023-04-25T10:51:19;4.05;;;2.88;;
79036;SDS011;68434;59.896;30.474;2023-04-25T10:53:58;4.13;;;2.97;;
79036;SDS011;68434;59.896;30.474;2023-04-25T10:56:32;5.60;;;3.35;;
79036;SDS011;68434;59.896;30.474;2023-04-25T10:59:08;4.97;;;2.80;;
79036;SDS011;68434;59.896;30.474;2023-04-25T11:01:38;6.70;;;3.58;;
79036;SDS011;68434;59.896;30.474;2023-04-25T11:04:18;5.95;;;2.85;;
79036;SDS011;68434;59.896;30.474;2023-04-25T11:06:51;3.80;;;2.70;;
79036;SDS011;68434;59.896;30.474;2023-04-25T11:09:29;12.77;;;9.40;;
79036;SDS011;68434;59.896;30.474;2023-04-25T11:11:59;7.82;;;4.03;;
79036;SDS011;68434;59.896;30.474;2023-04-25T11:14:26;7.88;;;3.33;;
79036;SDS011;68434;59.896;30.474;2023-04-25T11:16:54;7.90;;;2.95;;
79036;SDS011;68434;59.896;30.474;2023-04-25T11:19:22;6.20;;;3.00;;
79036;SDS011;68434;59.896;30.474;2023-04-25T11:21:54;4.60;;;2.78;;
79036;SDS011;68434;59.896;30.474;2023-04-25T11:24:25;30.90;;;21.85;;
79036;SDS011;68434;59.896;30.474;2023-04-25T11:26:54;6.50;;;3.63;;
79036;SDS011;68434;59.896;30.474;2023-04-25T11:29:23;6.47;;;3.40;;
79036;SDS011;68434;59.896;30.474;2023-04-25T11:31:54;5.57;;;3.00;;
79036;SDS011;68434;59.896;30.474;2023-04-25T11:34:24;7.32;;;3.97;;
79036;SDS011;68434;59.896;30.474;2023-04-25T11:36:51;4.72;;;2.60;;
79036;SDS011;68434;59.896;30.474;2023-04-25T11:41:47;6.47;;;3.05;;
79036;SDS011;68434;59.896;30.474;2023-04-25T11:49:12;7.47;;;3.50;;
79036;SDS011;68434;59.896;30.474;2023-04-25T11:51:39;6.60;;;2.85;;
79036;SDS011;68434;59.896;30.474;2023-04-25T11:54:07;6.15;;;2.63;;
79036;SDS011;68434;59.896;30.474;2023-04-25T11:56:35;5.30;;;3.45;;
79036;SDS011;68434;59.896;30.474;2023-04-25T11:59:03;5.30;;;2.90;;
79036;SDS011;68434;59.896;30.474;2023-04-25T12:01:33;5.60;;;3.45;;
79036;SDS011;68434;59.896;30.474;2023-04-25T12:04:13;6.85;;;3.20;;
79036;SDS011;68434;59.896;30.474;2023-04-25T12:06:43;5.15;;;3.38;;
79036;SDS011;68434;59.896;30.474;2023-04-25T12:09:14;7.20;;;3.70;;
79036;SDS011;68434;59.896;30.474;2023-04-25T12:11:43;7.32;;;3.45;;
79036;SDS011;68434;59.896;30.474;2023-04-25T12:14:19;6.10;;;3.88;;
79036;SDS011;68434;59.896;30.474;2023-04-25T12:21:10;7.82;;;3.67;;
79036;SDS011;68434;59.896;30.474;2023-04-25T12:23:38;6.82;;;4.35;;
79036;SDS011;68434;59.896;30.474;2023-04-25T12:26:07;5.38;;;3.25;;
79036;SDS011;68434;59.896;30.474;2023-04-25T12:28:35;6.75;;;2.80;;
79036;SDS011;68434;59.896;30.474;2023-04-25T12:31:03;5.50;;;3.63;;
79036;SDS011;68434;59.896;30.474;2023-04-25T12:33:32;6.72;;;3.35;;
79036;SDS011;68434;59.896;30.474;2023-04-25T12:36:01;6.80;;;3.20;;
79036;SDS011;68434;59.896;30.474;2023-04-25T12:38:37;4.93;;;3.70;;
79036;SDS011;68434;59.896;30.474;2023-04-25T12:41:06;4.70;;;2.80;;
79036;SDS011;68434;59.896;30.474;2023-04-25T12:43:35;6.93;;;2.80;;
79036;SDS011;68434;59.896;30.474;2023-04-25T12:46:02;5.60;;;3.13;;
79036;SDS011;68434;59.896;30.474;2023-04-25T12:48:30;4.80;;;3.17;;
79036;SDS011;68434;59.896;30.474;2023-04-25T12:50:58;6.97;;;3.80;;
79036;SDS011;68434;59.896;30.474;2023-04-25T12:53:26;9.60;;;3.50;;
79036;SDS011;68434;59.896;30.474;2023-04-25T12:55:55;6.82;;;3.83;;
79036;SDS011;68434;59.896;30.474;2023-04-25T12:58:23;4.70;;;3.38;;
79036;SDS011;68434;59.896;30.474;2023-04-25T13:00:51;5.80;;;3.50;;
79036;SDS011;68434;59.896;30.474;2023-04-25T13:03:19;4.57;;;3.13;;
79036;SDS011;68434;59.896;30.474;2023-04-25T13:08:15;5.43;;;3.65;;
79036;SDS011;68434;59.896;30.474;2023-04-25T13:10:43;8.77;;;4.03;;
79036;SDS011;68434;59.896;30.474;2023-04-25T13:13:12;3.92;;;2.80;;
79036;SDS011;68434;59.896;30.474;2023-04-25T13:15:40;6.68;;;3.13;;
79036;SDS011;68434;59.896;30.474;2023-04-25T13:18:08;7.05;;;3.60;;
79036;SDS011;68434;59.896;30.474;2023-04-25T13:23:57;4.30;;;3.22;;
79036;SDS011;68434;59.896;30.474;2023-04-25T13:26:25;5.28;;;3.70;;
79036;SDS011;68434;59.896;30.474;2023-04-25T13:28:54;6.97;;;3.63;;
79036;SDS011;68434;59.896;30.474;2023-04-25T13:31:22;5.47;;;3.50;;
79036;SDS011;68434;59.896;30.474;2023-04-25T13:33:50;6.65;;;3.38;;
79036;SDS011;68434;59.896;30.474;2023-04-25T13:36:18;5.55;;;3.22;;
79036;SDS011;68434;59.896;30.474;2023-04-25T13:38:45;5.70;;;3.80;;
79036;SDS011;68434;59.896;30.474;2023-04-25T13:41:14;7.35;;;3.63;;
79036;SDS011;68434;59.896;30.474;2023-04-25T13:43:45;9.35;;;4.00;;
79036;SDS011;68434;59.896;30.474;2023-04-25T13:46:16;7.70;;;3.95;;
79036;SDS011;68434;59.896;30.474;2023-04-25T13:48:44;8.48;;;4.28;;
79036;SDS011;68434;59.896;30.474;2023-04-25T13:51:18;6.53;;;3.75;;
79036;SDS011;68434;59.896;30.474;2023-04-25T13:53:46;4.90;;;3.53;;
79036;SDS011;68434;59.896;30.474;2023-04-25T13:56:14;11.35;;;3.30;;
79036;SDS011;68434;59.896;30.474;2023-04-25T13:58:42;6.75;;;3.95;;
79036;SDS011;68434;59.896;30.474;2023-04-25T14:01:09;9.63;;;3.60;;
79036;SDS011;68434;59.896;30.474;2023-04-25T14:03:38;7.72;;;3.30;;
79036;SDS011;68434;59.896;30.474;2023-04-25T14:06:07;6.85;;;4.63;;
79036;SDS011;68434;59.896;30.474;2023-04-25T14:08:34;8.50;;;5.03;;
79036;SDS011;68434;59.896;30.474;2023-04-25T14:11:02;6.25;;;4.07;;
79036;SDS011;68434;59.896;30.474;2023-04-25T14:13:30;8.35;;;3.85;;
79036;SDS011;68434;59.896;30.474;2023-04-25T14:15:58;12.80;;;4.40;;
79036;SDS011;68434;59.896;30.474;2023-04-25T14:18:25;6.32;;;3.63;;
79036;SDS011;68434;59.896;30.474;2023-04-25T14:20:54;5.28;;;3.42;;
79036;SDS011;68434;59.896;30.474;2023-04-25T14:23:22;7.82;;;3.80;;
79036;SDS011;68434;59.896;30.474;2023-04-25T14:25:50;7.82;;;3.35;;
79036;SDS011;68434;59.896;30.474;2023-04-25T14:28:17;11.85;;;4.03;;
79036;SDS011;68434;59.896;30.474;2023-04-25T14:30:45;5.97;;;3.75;;
79036;SDS011;68434;59.896;30.474;2023-04-25T14:33:13;6.55;;;3.50;;
79036;SDS011;68434;59.896;30.474;2023-04-25T14:35:41;9.05;;;4.50;;
79036;SDS011;68434;59.896;30.474;2023-04-25T14:38:10;9.00;;;4.95;;
79036;SDS011;68434;59.896;30.474;2023-04-25T14:40:38;9.82;;;5.05;;
79036;SDS011;68434;59.896;30.474;2023-04-25T14:43:05;11.70;;;5.53;;
79036;SDS011;68434;59.896;30.474;2023-04-25T14:45:33;11.98;;;8.13;;
79036;SDS011;68434;59.896;30.474;2023-04-25T14:48:02;13.30;;;5.03;;
79036;SDS011;68434;59.896;30.474;2023-04-25T14:50:29;6.63;;;3.80;;
79036;SDS011;68434;59.896;30.474;2023-04-25T14:52:57;5.82;;;3.80;;
79036;SDS011;68434;59.896;30.474;2023-04-25T14:55:27;5.38;;;3.72;;
79036;SDS011;68434;59.896;30.474;2023-04-25T14:57:55;7.88;;;4.53;;
79036;SDS011;68434;59.896;30.474;2023-04-25T15:00:23;5.50;;;4.22;;
79036;SDS011;68434;59.896;30.474;2023-04-25T15:02:52;7.97;;;3.63;;
79036;SDS011;68434;59.896;30.474;2023-04-25T15:05:21;9.85;;;3.95;;
79036;SDS011;68434;59.896;30.474;2023-04-25T15:07:49;6.95;;;4.18;;
79036;SDS011;68434;59.896;30.474;2023-04-25T15:10:17;7.25;;;4.18;;
79036;SDS011;68434;59.896;30.474;2023-04-25T15:12:47;4.97;;;3.70;;
79036;SDS011;68434;59.896;30.474;2023-04-25T15:15:15;8.48;;;3.80;;
79036;SDS011;68434;59.896;30.474;2023-04-25T15:17:42;7.72;;;3.72;;
79036;SDS011;68434;59.896;30.474;2023-04-25T15:20:11;8.60;;;4.05;;
79036;SDS011;68434;59.896;30.474;2023-04-25T15:22:41;9.38;;;4.72;;
79036;SDS011;68434;59.896;30.474;2023-04-25T15:25:09;7.25;;;4.32;;
79036;SDS011;68434;59.896;30.474;2023-04-25T15:27:38;7.45;;;3.78;;